Vera, Missouri
Current Conditions -  °F | °C
As of 1:35 AM on Thursday 23 Oct 2014 (Local Time) from KPPQ Reporting Station
Clear Clear  
Wind Chill: 42°   Ceiling: Unl
Heat Index: 44°   Visibility: 10mi
Dew Point: 39°   Wind: 5mph
Humidity: 81%   Direction: 150°SSE
Pressure: 30.21"   Gusts: NA
Location:  39.321°N, 91.1912°W
Report Text: KPPQ 230635Z AUTO 15004KT 10SM CLR 07/04 A3021 RMK AO2 T00690038
Loading
Personal Weather Stations






























Interactive Weather Map
Tropical Storm Tracking
New forecast layout! Learn more

10-Day Weather Forecast

Advertisements
Track Severe Weather on mobile